sensor_id;sensor_type;location;lat;lon;timestamp;pressure;altitude;pressure_sealevel;temperature;humidity
36600;BME280;35385;55.668;37.508;2023-05-19T00:00:20;99862.91;;;17.13;100.00
36600;BME280;35385;55.668;37.508;2023-05-19T00:01:21;99848.22;;;17.07;100.00
36600;BME280;35385;55.668;37.508;2023-05-19T00:02:22;99858.19;;;17.15;100.00
36600;BME280;35385;55.668;37.508;2023-05-19T00:03:25;99865.28;;;17.16;100.00
36600;BME280;35385;55.668;37.508;2023-05-19T00:04:26;99864.69;;;16.96;100.00
36600;BME280;35385;55.668;37.508;2023-05-19T00:05:27;99848.34;;;16.98;100.00
36600;BME280;35385;55.668;37.508;2023-05-19T00:06:31;99866.13;;;17.16;100.00
36600;BME280;35385;55.668;37.508;2023-05-19T00:07:32;99871.31;;;17.10;100.00
36600;BME280;35385;55.668;37.508;2023-05-19T00:08:37;99879.94;;;17.13;100.00
36600;BME280;35385;55.668;37.508;2023-05-19T00:09:38;99857.63;;;17.03;100.00
36600;BME280;35385;55.668;37.508;2023-05-19T00:10:39;99873.81;;;16.95;100.00
36600;BME280;35385;55.668;37.508;2023-05-19T00:11:39;99835.44;;;16.49;100.00
36600;BME280;35385;55.668;37.508;2023-05-19T00:12:40;99877.44;;;16.78;100.00
36600;BME280;35385;55.668;37.508;2023-05-19T00:13:42;99871.69;;;16.73;100.00
36600;BME280;35385;55.668;37.508;2023-05-19T00:14:44;99861.41;;;16.76;100.00
36600;BME280;35385;55.668;37.508;2023-05-19T00:15:45;99867.28;;;16.72;100.00
36600;BME280;35385;55.668;37.508;2023-05-19T00:16:46;99877.47;;;16.60;100.00
36600;BME280;35385;55.668;37.508;2023-05-19T00:17:47;99884.69;;;16.59;100.00
36600;BME280;35385;55.668;37.508;2023-05-19T00:18:48;99833.81;;;16.31;100.00
36600;BME280;35385;55.668;37.508;2023-05-19T00:19:50;99884.81;;;16.76;100.00
36600;BME280;35385;55.668;37.508;2023-05-19T00:20:51;99879.81;;;16.81;100.00
36600;BME280;35385;55.668;37.508;2023-05-19T00:21:52;99869.34;;;16.78;100.00
36600;BME280;35385;55.668;37.508;2023-05-19T00:22:52;99886.25;;;16.88;100.00
36600;BME280;35385;55.668;37.508;2023-05-19T00:23:53;99866.16;;;16.82;100.00
36600;BME280;35385;55.668;37.508;2023-05-19T00:24:54;99886.91;;;16.90;100.00
36600;BME280;35385;55.668;37.508;2023-05-19T00:25:55;99890.31;;;16.92;100.00
36600;BME280;35385;55.668;37.508;2023-05-19T00:26:56;99887.28;;;16.87;100.00
36600;BME280;35385;55.668;37.508;2023-05-19T00:27:57;99894.69;;;16.85;100.00
36600;BME280;35385;55.668;37.508;2023-05-19T00:28:58;99888.28;;;16.94;100.00
36600;BME280;35385;55.668;37.508;2023-05-19T00:29:59;99896.97;;;16.72;100.00
36600;BME280;35385;55.668;37.508;2023-05-19T00:30:59;99901.91;;;16.58;100.00
36600;BME280;35385;55.668;37.508;2023-05-19T00:32:01;99906.47;;;16.58;100.00
36600;BME280;35385;55.668;37.508;2023-05-19T00:33:02;99905.13;;;16.62;100.00
36600;BME280;35385;55.668;37.508;2023-05-19T00:34:02;99903.00;;;16.66;100.00
36600;BME280;35385;55.668;37.508;2023-05-19T00:35:03;99845.97;;;16.09;100.00
36600;BME280;35385;55.668;37.508;2023-05-19T00:36:04;99858.00;;;15.97;100.00
36600;BME280;35385;55.668;37.508;2023-05-19T00:37:05;99912.09;;;16.21;100.00
36600;BME280;35385;55.668;37.508;2023-05-19T00:38:06;99912.66;;;16.33;100.00
36600;BME280;35385;55.668;37.508;2023-05-19T00:39:06;99913.78;;;16.22;100.00
36600;BME280;35385;55.668;37.508;2023-05-19T00:40:08;99915.34;;;16.07;100.00
36600;BME280;35385;55.668;37.508;2023-05-19T00:41:09;99910.34;;;16.12;100.00
36600;BME280;35385;55.668;37.508;2023-05-19T00:42:11;99902.53;;;16.26;100.00
36600;BME280;35385;55.668;37.508;2023-05-19T00:43:11;99916.84;;;16.27;100.00
36600;BME280;35385;55.668;37.508;2023-05-19T00:44:12;99911.47;;;16.27;100.00
36600;BME280;35385;55.668;37.508;2023-05-19T00:45:13;99833.88;;;15.69;100.00
36600;BME280;35385;55.668;37.508;2023-05-19T00:46:13;99919.47;;;16.19;100.00
36600;BME280;35385;55.668;37.508;2023-05-19T00:47:14;99831.53;;;15.74;100.00
36600;BME280;35385;55.668;37.508;2023-05-19T00:48:15;99906.38;;;16.24;100.00
36600;BME280;35385;55.668;37.508;2023-05-19T00:49:15;99890.09;;;16.34;100.00
36600;BME280;35385;55.668;37.508;2023-05-19T00:50:16;99867.56;;;16.17;100.00
36600;BME280;35385;55.668;37.508;2023-05-19T00:51:17;99914.94;;;16.45;100.00
36600;BME280;35385;55.668;37.508;2023-05-19T00:52:18;99907.13;;;16.34;100.00
36600;BME280;35385;55.668;37.508;2023-05-19T00:53:19;99899.34;;;16.31;100.00
36600;BME280;35385;55.668;37.508;2023-05-19T00:54:20;99909.34;;;16.39;100.00
36600;BME280;35385;55.668;37.508;2023-05-19T00:55:26;99882.81;;;16.26;100.00
36600;BME280;35385;55.668;37.508;2023-05-19T00:56:27;99915.44;;;16.41;100.00
36600;BME280;35385;55.668;37.508;2023-05-19T00:57:28;99911.88;;;16.14;100.00
36600;BME280;35385;55.668;37.508;2023-05-19T00:58:29;99901.94;;;16.15;100.00
36600;BME280;35385;55.668;37.508;2023-05-19T00:59:31;99912.16;;;16.29;100.00
36600;BME280;35385;55.668;37.508;2023-05-19T01:00:32;99894.75;;;16.23;100.00
36600;BME280;35385;55.668;37.508;2023-05-19T01:01:33;99865.28;;;16.04;100.00
36600;BME280;35385;55.668;37.508;2023-05-19T01:02:34;99910.31;;;16.30;100.00
36600;BME280;35385;55.668;37.508;2023-05-19T01:03:34;99909.13;;;16.32;100.00
36600;BME280;35385;55.668;37.508;2023-05-19T01:04:36;99904.69;;;16.23;100.00
36600;BME280;35385;55.668;37.508;2023-05-19T01:05:39;99911.34;;;16.11;100.00
36600;BME280;35385;55.668;37.508;2023-05-19T01:06:41;99919.47;;;16.19;100.00
36600;BME280;35385;55.668;37.508;2023-05-19T01:07:42;99926.09;;;16.24;100.00
36600;BME280;35385;55.668;37.508;2023-05-19T01:08:44;99920.91;;;16.31;100.00
36600;BME280;35385;55.668;37.508;2023-05-19T01:09:46;99913.75;;;16.40;100.00
36600;BME280;35385;55.668;37.508;2023-05-19T01:10:46;99927.22;;;16.40;100.00
36600;BME280;35385;55.668;37.508;2023-05-19T01:11:48;99924.69;;;16.38;100.00
36600;BME280;35385;55.668;37.508;2023-05-19T01:12:49;99913.94;;;16.46;100.00
36600;BME280;35385;55.668;37.508;2023-05-19T01:13:49;99908.72;;;16.45;100.00
36600;BME280;35385;55.668;37.508;2023-05-19T01:14:50;99919.84;;;16.42;100.00
36600;BME280;35385;55.668;37.508;2023-05-19T01:16:13;99916.63;;;16.46;100.00
36600;BME280;35385;55.668;37.508;2023-05-19T01:19:00;99923.53;;;16.41;100.00
36600;BME280;35385;55.668;37.508;2023-05-19T01:20:13;99930.34;;;16.27;100.00
36600;BME280;35385;55.668;37.508;2023-05-19T01:22:31;99923.56;;;16.05;100.00
36600;BME280;35385;55.668;37.508;2023-05-19T01:24:48;99916.47;;;16.04;100.00
36600;BME280;35385;55.668;37.508;2023-05-19T01:30:33;99920.13;;;15.95;100.00
36600;BME280;35385;55.668;37.508;2023-05-19T01:31:37;99921.13;;;15.76;100.00
36600;BME280;35385;55.668;37.508;2023-05-19T01:32:40;99925.66;;;15.76;100.00
36600;BME280;35385;55.668;37.508;2023-05-19T01:33:42;99934.50;;;15.68;100.00
36600;BME280;35385;55.668;37.508;2023-05-19T01:34:44;99894.78;;;15.52;100.00
36600;BME280;35385;55.668;37.508;2023-05-19T01:35:46;99935.53;;;15.85;100.00
36600;BME280;35385;55.668;37.508;2023-05-19T01:36:47;99937.38;;;15.84;100.00
36600;BME280;35385;55.668;37.508;2023-05-19T01:37:50;99927.75;;;15.82;100.00
36600;BME280;35385;55.668;37.508;2023-05-19T01:38:56;99946.97;;;15.69;100.00
36600;BME280;35385;55.668;37.508;2023-05-19T01:39:57;99934.66;;;15.67;100.00
36600;BME280;35385;55.668;37.508;2023-05-19T01:40:58;99934.66;;;15.67;100.00
36600;BME280;35385;55.668;37.508;2023-05-19T01:42:00;99897.72;;;15.32;100.00
36600;BME280;35385;55.668;37.508;2023-05-19T01:43:02;99928.09;;;15.24;100.00
36600;BME280;35385;55.668;37.508;2023-05-19T01:44:03;99929.59;;;15.09;100.00
36600;BME280;35385;55.668;37.508;2023-05-19T01:45:05;99952.72;;;15.29;100.00
36600;BME280;35385;55.668;37.508;2023-05-19T01:46:09;99889.38;;;15.07;100.00
36600;BME280;35385;55.668;37.508;2023-05-19T01:47:11;99951.44;;;15.51;100.00
36600;BME280;35385;55.668;37.508;2023-05-19T01:48:13;99945.50;;;15.57;100.00
36600;BME280;35385;55.668;37.508;2023-05-19T01:49:14;99950.56;;;15.60;100.00
36600;BME280;35385;55.668;37.508;2023-05-19T01:50:14;99947.44;;;15.65;100.00
36600;BME280;35385;55.668;37.508;2023-05-19T01:51:15;99941.81;;;15.58;100.00
36600;BME280;35385;55.668;37.508;2023-05-19T01:52:16;99954.25;;;15.59;100.00
36600;BME280;35385;55.668;37.508;2023-05-19T01:53:17;99940.63;;;15.33;100.00
36600;BME280;35385;55.668;37.508;2023-05-19T01:54:17;99955.66;;;15.36;100.00
36600;BME280;35385;55.668;37.508;2023-05-19T01:55:18;99937.41;;;15.30;100.00
36600;BME280;35385;55.668;37.508;2023-05-19T01:56:30;99922.16;;;15.20;100.00
36600;BME280;35385;55.668;37.508;2023-05-19T01:58:49;99955.00;;;15.24;100.00
36600;BME280;35385;55.668;37.508;2023-05-19T02:02:09;99943.19;;;15.07;100.00
36600;BME280;35385;55.668;37.508;2023-05-19T02:04:42;99950.00;;;15.02;100.00
36600;BME280;35385;55.668;37.508;2023-05-19T02:06:29;99963.31;;;15.03;100.00
36600;BME280;35385;55.668;37.508;2023-05-19T02:07:30;99974.25;;;14.92;100.00
36600;BME280;35385;55.668;37.508;2023-05-19T02:08:51;99972.97;;;14.86;100.00
36600;BME280;35385;55.668;37.508;2023-05-19T02:10:10;99965.97;;;14.66;100.00
36600;BME280;35385;55.668;37.508;2023-05-19T02:11:20;99955.81;;;14.50;100.00
36600;BME280;35385;55.668;37.508;2023-05-19T02:12:33;99906.06;;;14.18;100.00
36600;BME280;35385;55.668;37.508;2023-05-19T02:13:36;99963.47;;;14.26;100.00
36600;BME280;35385;55.668;37.508;2023-05-19T02:14:44;99966.00;;;14.37;100.00
36600;BME280;35385;55.668;37.508;2023-05-19T02:15:50;99969.41;;;14.20;100.00
36600;BME280;35385;55.668;37.508;2023-05-19T02:16:52;99937.19;;;14.10;100.00
36600;BME280;35385;55.668;37.508;2023-05-19T02:17:54;99973.63;;;14.32;100.00
36600;BME280;35385;55.668;37.508;2023-05-19T02:19:20;99915.09;;;14.16;100.00
36600;BME280;35385;55.668;37.508;2023-05-19T02:20:20;99966.16;;;14.55;100.00
36600;BME280;35385;55.668;37.508;2023-05-19T02:21:24;99965.16;;;14.37;100.00
36600;BME280;35385;55.668;37.508;2023-05-19T02:22:24;99953.00;;;14.04;100.00
36600;BME280;35385;55.668;37.508;2023-05-19T02:23:25;99916.41;;;13.74;100.00
36600;BME280;35385;55.668;37.508;2023-05-19T02:24:26;99981.72;;;13.94;100.00
36600;BME280;35385;55.668;37.508;2023-05-19T02:25:26;99949.59;;;13.63;100.00
36600;BME280;35385;55.668;37.508;2023-05-19T02:26:27;99970.78;;;13.66;100.00
36600;BME280;35385;55.668;37.508;2023-05-19T02:27:27;99969.94;;;13.75;100.00
36600;BME280;35385;55.668;37.508;2023-05-19T02:28:29;99978.03;;;13.26;100.00
36600;BME280;35385;55.668;37.508;2023-05-19T02:29:29;99977.13;;;13.16;100.00
36600;BME280;35385;55.668;37.508;2023-05-19T02:30:30;99979.75;;;13.27;100.00
36600;BME280;35385;55.668;37.508;2023-05-19T02:31:30;99970.28;;;13.42;100.00
36600;BME280;35385;55.668;37.508;2023-05-19T02:32:31;99978.69;;;13.58;100.00
36600;BME280;35385;55.668;37.508;2023-05-19T02:33:32;99980.66;;;13.56;100.00
36600;BME280;35385;55.668;37.508;2023-05-19T02:34:33;99978.09;;;13.45;100.00
36600;BME280;35385;55.668;37.508;2023-05-19T02:35:33;99988.28;;;13.51;100.00
36600;BME280;35385;55.668;37.508;2023-05-19T02:36:35;99992.81;;;13.60;100.00
36600;BME280;35385;55.668;37.508;2023-05-19T02:37:38;99989.19;;;13.80;100.00
36600;BME280;35385;55.668;37.508;2023-05-19T02:38:39;99993.00;;;13.88;100.00
36600;BME280;35385;55.668;37.508;2023-05-19T02:39:40;99988.91;;;13.84;100.00
36600;BME280;35385;55.668;37.508;2023-05-19T02:40:41;99981.41;;;13.77;100.00
36600;BME280;35385;55.668;37.508;2023-05-19T02:41:42;99985.19;;;13.56;100.00
36600;BME280;35385;55.668;37.508;2023-05-19T02:42:42;99982.78;;;13.62;100.00
36600;BME280;35385;55.668;37.508;2023-05-19T02:43:43;99987.94;;;13.35;100.00
36600;BME280;35385;55.668;37.508;2023-05-19T02:44:44;99981.34;;;13.39;100.00
36600;BME280;35385;55.668;37.508;2023-05-19T02:45:45;99975.00;;;13.59;100.00
36600;BME280;35385;55.668;37.508;2023-05-19T02:46:45;99987.16;;;13.63;100.00
36600;BME280;35385;55.668;37.508;2023-05-19T02:47:46;99902.88;;;13.16;100.00
36600;BME280;35385;55.668;37.508;2023-05-19T02:48:47;99982.66;;;13.64;100.00
36600;BME280;35385;55.668;37.508;2023-05-19T02:49:47;99959.09;;;13.18;100.00
36600;BME280;35385;55.668;37.508;2023-05-19T02:50:48;99984.28;;;13.05;100.00
36600;BME280;35385;55.668;37.508;2023-05-19T02:51:49;99963.41;;;13.09;100.00
36600;BME280;35385;55.668;37.508;2023-05-19T02:52:49;99982.69;;;13.24;100.00
36600;BME280;35385;55.668;37.508;2023-05-19T02:53:51;99984.31;;;13.45;100.00
36600;BME280;35385;55.668;37.508;2023-05-19T02:54:52;99976.44;;;13.63;100.00
36600;BME280;35385;55.668;37.508;2023-05-19T02:55:52;99993.66;;;13.51;100.00
36600;BME280;35385;55.668;37.508;2023-05-19T02:56:53;99968.25;;;13.55;100.00
36600;BME280;35385;55.668;37.508;2023-05-19T02:57:54;99985.22;;;13.65;100.00
36600;BME280;35385;55.668;37.508;2023-05-19T02:58:55;99988.59;;;13.67;100.00
36600;BME280;35385;55.668;37.508;2023-05-19T02:59:56;99964.53;;;13.56;100.00
36600;BME280;35385;55.668;37.508;2023-05-19T03:00:56;99986.19;;;13.74;100.00
36600;BME280;35385;55.668;37.508;2023-05-19T03:02:01;99977.72;;;13.78;100.00
36600;BME280;35385;55.668;37.508;2023-05-19T03:03:01;99984.09;;;13.77;100.00
36600;BME280;35385;55.668;37.508;2023-05-19T03:04:02;99952.72;;;13.68;100.00
36600;BME280;35385;55.668;37.508;2023-05-19T03:05:03;99988.06;;;14.02;100.00
36600;BME280;35385;55.668;37.508;2023-05-19T03:06:04;99983.13;;;13.98;100.00
36600;BME280;35385;55.668;37.508;2023-05-19T03:07:08;99978.75;;;13.97;100.00
36600;BME280;35385;55.668;37.508;2023-05-19T03:08:09;99943.91;;;13.57;100.00
36600;BME280;35385;55.668;37.508;2023-05-19T03:09:10;99989.75;;;13.94;100.00
36600;BME280;35385;55.668;37.508;2023-05-19T03:10:10;99988.06;;;14.02;100.00
36600;BME280;35385;55.668;37.508;2023-05-19T03:11:11;99992.28;;;13.86;100.00
36600;BME280;35385;55.668;37.508;2023-05-19T03:12:12;99993.97;;;13.87;100.00
36600;BME280;35385;55.668;37.508;2023-05-19T03:13:12;99994.28;;;13.84;100.00
36600;BME280;35385;55.668;37.508;2023-05-19T03:14:13;99989.59;;;13.86;100.00
36600;BME280;35385;55.668;37.508;2023-05-19T03:15:13;99980.09;;;13.53;100.00
36600;BME280;35385;55.668;37.508;2023-05-19T03:16:15;99985.22;;;13.65;100.00
36600;BME280;35385;55.668;37.508;2023-05-19T03:17:16;99993.41;;;13.73;100.00
36600;BME280;35385;55.668;37.508;2023-05-19T03:18:16;99949.84;;;13.51;100.00
36600;BME280;35385;55.668;37.508;2023-05-19T03:19:17;99993.44;;;13.83;100.00
36600;BME280;35385;55.668;37.508;2023-05-19T03:20:18;100000.34;;;13.86;100.00
36600;BME280;35385;55.668;37.508;2023-05-19T03:21:18;100002.63;;;13.80;100.00
36600;BME280;35385;55.668;37.508;2023-05-19T03:22:19;100008.13;;;13.89;100.00
36600;BME280;35385;55.668;37.508;2023-05-19T03:23:20;100009.00;;;13.99;100.00
36600;BME280;35385;55.668;37.508;2023-05-19T03:24:21;100008.16;;;13.98;100.00
36600;BME280;35385;55.668;37.508;2023-05-19T03:25:22;100008.69;;;13.92;100.00
36600;BME280;35385;55.668;37.508;2023-05-19T03:26:22;100003.19;;;13.94;100.00
36600;BME280;35385;55.668;37.508;2023-05-19T03:27:23;100016.34;;;13.97;100.00
36600;BME280;35385;55.668;37.508;2023-05-19T03:28:24;100008.56;;;13.94;100.00
36600;BME280;35385;55.668;37.508;2023-05-19T03:29:26;100011.50;;;13.81;100.00
36600;BME280;35385;55.668;37.508;2023-05-19T03:30:27;99945.47;;;13.09;100.00
36600;BME280;35385;55.668;37.508;2023-05-19T03:31:27;100016.22;;;13.39;100.00
36600;BME280;35385;55.668;37.508;2023-05-19T03:32:29;100023.59;;;13.56;100.00
36600;BME280;35385;55.668;37.508;2023-05-19T03:33:31;100017.81;;;13.51;100.00
36600;BME280;35385;55.668;37.508;2023-05-19T03:34:32;100020.38;;;13.72;100.00
36600;BME280;35385;55.668;37.508;2023-05-19T03:35:33;100002.41;;;13.53;100.00
36600;BME280;35385;55.668;37.508;2023-05-19T03:36:33;100016.47;;;13.36;100.00
36600;BME280;35385;55.668;37.508;2023-05-19T03:37:38;100009.84;;;13.09;100.00
36600;BME280;35385;55.668;37.508;2023-05-19T03:38:39;99965.38;;;12.77;100.00
36600;BME280;35385;55.668;37.508;2023-05-19T03:39:39;100034.22;;;13.27;100.00
36600;BME280;35385;55.668;37.508;2023-05-19T03:40:40;100011.41;;;13.12;100.00
36600;BME280;35385;55.668;37.508;2023-05-19T03:41:41;100024.81;;;13.12;100.00
36600;BME280;35385;55.668;37.508;2023-05-19T03:42:41;100022.72;;;13.16;100.00
36600;BME280;35385;55.668;37.508;2023-05-19T03:43:42;99937.25;;;12.41;100.00
36600;BME280;35385;55.668;37.508;2023-05-19T03:44:42;100030.38;;;12.99;100.00
36600;BME280;35385;55.668;37.508;2023-05-19T03:45:43;100033.91;;;13.21;100.00
36600;BME280;35385;55.668;37.508;2023-05-19T03:46:44;99983.56;;;13.03;100.00
36600;BME280;35385;55.668;37.508;2023-05-19T03:47:45;100033.19;;;13.49;100.00
36600;BME280;35385;55.668;37.508;2023-05-19T03:48:49;100030.38;;;13.60;100.00
36600;BME280;35385;55.668;37.508;2023-05-19T03:49:49;100029.53;;;13.50;100.00
36600;BME280;35385;55.668;37.508;2023-05-19T03:50:50;100032.94;;;13.62;100.00
36600;BME280;35385;55.668;37.508;2023-05-19T03:51:53;99989.91;;;13.33;100.00
36600;BME280;35385;55.668;37.508;2023-05-19T03:52:54;100019.63;;;13.41;100.00
36600;BME280;35385;55.668;37.508;2023-05-19T03:53:55;100039.75;;;13.26;100.00
36600;BME280;35385;55.668;37.508;2023-05-19T03:54:56;100032.94;;;13.22;100.00
36600;BME280;35385;55.668;37.508;2023-05-19T03:55:57;100034.84;;;13.10;100.00
36600;BME280;35385;55.668;37.508;2023-05-19T03:56:58;100049.03;;;13.01;100.00
36600;BME280;35385;55.668;37.508;2023-05-19T03:57:59;99952.19;;;12.43;100.00
36600;BME280;35385;55.668;37.508;2023-05-19T03:58:59;100039.72;;;12.54;100.00
36600;BME280;35385;55.668;37.508;2023-05-19T04:00:00;100052.38;;;12.52;100.00
36600;BME280;35385;55.668;37.508;2023-05-19T04:01:00;100032.50;;;12.33;100.00
36600;BME280;35385;55.668;37.508;2023-05-19T04:02:01;100045.56;;;12.48;100.00
36600;BME280;35385;55.668;37.508;2023-05-19T04:03:02;100049.38;;;12.66;100.00
36600;BME280;35385;55.668;37.508;2023-05-19T04:04:03;100051.00;;;12.78;100.00
36600;BME280;35385;55.668;37.508;2023-05-19T04:05:04;99991.47;;;12.54;100.00
36600;BME280;35385;55.668;37.508;2023-05-19T04:06:04;100049.66;;;12.84;100.00
36600;BME280;35385;55.668;37.508;2023-05-19T04:07:05;100061.22;;;12.63;100.00
36600;BME280;35385;55.668;37.508;2023-05-19T04:08:06;100040.06;;;12.70;100.00
36600;BME280;35385;55.668;37.508;2023-05-19T04:09:13;100063.44;;;12.79;100.00
36600;BME280;35385;55.668;37.508;2023-05-19T04:10:14;100055.19;;;12.50;100.00
36600;BME280;35385;55.668;37.508;2023-05-19T04:11:14;100049.41;;;12.34;100.00
36600;BME280;35385;55.668;37.508;2023-05-19T04:12:15;100037.19;;;12.20;100.00
36600;BME280;35385;55.668;37.508;2023-05-19T04:13:16;100038.09;;;12.30;100.00
36600;BME280;35385;55.668;37.508;2023-05-19T04:14:16;100055.06;;;12.52;100.00
36600;BME280;35385;55.668;37.508;2023-05-19T04:15:17;100052.81;;;12.57;100.00
36600;BME280;35385;55.668;37.508;2023-05-19T04:16:18;100060.69;;;12.69;100.00
36600;BME280;35385;55.668;37.508;2023-05-19T04:17:18;100072.84;;;12.73;100.00
36600;BME280;35385;55.668;37.508;2023-05-19T04:18:19;99979.81;;;12.44;100.00
36600;BME280;35385;55.668;37.508;2023-05-19T04:19:20;100028.13;;;12.74;100.00
36600;BME280;35385;55.668;37.508;2023-05-19T04:20:20;99950.13;;;12.26;100.00
36600;BME280;35385;55.668;37.508;2023-05-19T04:21:21;100050.94;;;12.89;100.00
36600;BME280;35385;55.668;37.508;2023-05-19T04:22:22;100052.03;;;12.87;100.00
36600;BME280;35385;55.668;37.508;2023-05-19T04:23:22;100052.00;;;12.77;100.00
36600;BME280;35385;55.668;37.508;2023-05-19T04:24:23;100064.13;;;12.60;100.00
36600;BME280;35385;55.668;37.508;2023-05-19T04:25:23;100042.09;;;12.57;100.00
36600;BME280;35385;55.668;37.508;2023-05-19T04:26:25;100059.09;;;12.88;100.00
36600;BME280;35385;55.668;37.508;2023-05-19T04:27:26;99955.53;;;12.35;100.00
36600;BME280;35385;55.668;37.508;2023-05-19T04:28:28;100054.81;;;12.96;100.00
36600;BME280;35385;55.668;37.508;2023-05-19T04:29:29;100057.34;;;12.98;100.00
36600;BME280;35385;55.668;37.508;2023-05-19T04:30:29;100050.84;;;13.00;100.00
36600;BME280;35385;55.668;37.508;2023-05-19T04:31:30;100055.53;;;12.98;100.00
36600;BME280;35385;55.668;37.508;2023-05-19T04:32:31;100049.47;;;13.06;100.00
36600;BME280;35385;55.668;37.508;2023-05-19T04:33:31;100058.69;;;13.13;100.00
36600;BME280;35385;55.668;37.508;2023-05-19T04:34:34;100053.44;;;12.81;100.00
36600;BME280;35385;55.668;37.508;2023-05-19T04:35:34;100057.69;;;12.84;100.00
36600;BME280;35385;55.668;37.508;2023-05-19T04:36:37;100013.69;;;12.45;100.00
36600;BME280;35385;55.668;37.508;2023-05-19T04:37:38;100062.13;;;12.53;100.00
36600;BME280;35385;55.668;37.508;2023-05-19T04:38:39;100053.34;;;12.71;100.00
36600;BME280;35385;55.668;37.508;2023-05-19T04:39:40;100039.66;;;12.65;100.00
36600;BME280;35385;55.668;37.508;2023-05-19T04:40:43;99991.47;;;12.54;100.00
36600;BME280;35385;55.668;37.508;2023-05-19T04:41:43;100057.91;;;13.01;100.00
36600;BME280;35385;55.668;37.508;2023-05-19T04:42:44;100058.59;;;12.94;100.00
36600;BME280;35385;55.668;37.508;2023-05-19T04:43:45;100005.75;;;12.43;100.00
36600;BME280;35385;55.668;37.508;2023-05-19T04:44:47;100066.41;;;12.44;100.00
36600;BME280;35385;55.668;37.508;2023-05-19T04:45:51;100054.94;;;12.53;100.00
36600;BME280;35385;55.668;37.508;2023-05-19T04:46:51;100068.22;;;12.55;100.00
36600;BME280;35385;55.668;37.508;2023-05-19T04:47:53;100066.50;;;12.54;100.00
36600;BME280;35385;55.668;37.508;2023-05-19T04:48:57;100029.16;;;12.20;100.00
36600;BME280;35385;55.668;37.508;2023-05-19T04:50:00;100066.22;;;12.57;100.00
36600;BME280;35385;55.668;37.508;2023-05-19T04:51:01;100061.28;;;12.52;100.00
36600;BME280;35385;55.668;37.508;2023-05-19T04:52:01;100051.00;;;12.57;100.00
36600;BME280;35385;55.668;37.508;2023-05-19T04:53:02;100066.06;;;12.69;100.00
36600;BME280;35385;55.668;37.508;2023-05-19T04:54:03;100070.94;;;12.85;100.00
36600;BME280;35385;55.668;37.508;2023-05-19T04:55:04;100068.13;;;12.87;100.00
36600;BME280;35385;55.668;37.508;2023-05-19T04:56:07;99989.38;;;12.36;100.00
36600;BME280;35385;55.668;37.508;2023-05-19T04:57:07;100065.28;;;12.79;100.00
36600;BME280;35385;55.668;37.508;2023-05-19T04:58:09;100038.25;;;12.70;100.00
36600;BME280;35385;55.668;37.508;2023-05-19T04:59:10;100059.13;;;12.67;100.00
36600;BME280;35385;55.668;37.508;2023-05-19T05:00:14;100070.56;;;12.69;100.00
36600;BME280;35385;55.668;37.508;2023-05-19T05:01:15;100052.38;;;12.72;100.00
36600;BME280;35385;55.668;37.508;2023-05-19T05:02:15;100070.44;;;12.91;100.00
36600;BME280;35385;55.668;37.508;2023-05-19T05:03:16;100063.06;;;12.84;100.00
36600;BME280;35385;55.668;37.508;2023-05-19T05:04:17;100055.31;;;12.49;100.00
36600;BME280;35385;55.668;37.508;2023-05-19T05:05:17;100069.63;;;12.59;100.00
36600;BME280;35385;55.668;37.508;2023-05-19T05:06:18;100074.13;;;12.58;100.00
36600;BME280;35385;55.668;37.508;2023-05-19T05:07:19;100058.91;;;12.59;100.00
36600;BME280;35385;55.668;37.508;2023-05-19T05:08:21;100071.28;;;12.50;100.00
36600;BME280;35385;55.668;37.508;2023-05-19T05:09:22;100061.09;;;12.33;100.00
36600;BME280;35385;55.668;37.508;2023-05-19T05:10:23;100079.38;;;12.60;100.00
36600;BME280;35385;55.668;37.508;2023-05-19T05:11:24;100064.75;;;12.64;100.00
36600;BME280;35385;55.668;37.508;2023-05-19T05:12:25;100062.06;;;12.64;100.00
36600;BME280;35385;55.668;37.508;2023-05-19T05:13:26;100084.09;;;12.67;100.00
36600;BME280;35385;55.668;37.508;2023-05-19T05:14:27;100073.81;;;12.52;100.00
36600;BME280;35385;55.668;37.508;2023-05-19T05:15:28;100011.50;;;12.18;100.00
36600;BME280;35385;55.668;37.508;2023-05-19T05:16:29;100067.00;;;12.48;100.00
36600;BME280;35385;55.668;37.508;2023-05-19T05:17:30;100091.00;;;12.70;100.00
36600;BME280;35385;55.668;37.508;2023-05-19T05:18:32;100085.47;;;12.62;100.00
36600;BME280;35385;55.668;37.508;2023-05-19T05:19:33;100088.59;;;12.67;100.00
36600;BME280;35385;55.668;37.508;2023-05-19T05:20:34;99994.81;;;12.14;100.00
36600;BME280;35385;55.668;37.508;2023-05-19T05:21:35;100095.53;;;12.90;100.00
36600;BME280;35385;55.668;37.508;2023-05-19T05:22:36;100090.50;;;12.97;100.00
36600;BME280;35385;55.668;37.508;2023-05-19T05:23:38;100078.81;;;12.77;100.00
36600;BME280;35385;55.668;37.508;2023-05-19T05:24:39;100028.72;;;12.57;100.00
36600;BME280;35385;55.668;37.508;2023-05-19T05:25:40;100105.84;;;12.74;100.00
36600;BME280;35385;55.668;37.508;2023-05-19T05:26:41;100095.38;;;12.71;100.00
36600;BME280;35385;55.668;37.508;2023-05-19T05:27:42;100021.72;;;12.13;100.00
36600;BME280;35385;55.668;37.508;2023-05-19T05:28:43;100097.94;;;12.20;100.00
36600;BME280;35385;55.668;37.508;2023-05-19T05:29:43;100093.38;;;12.31;100.00
36600;BME280;35385;55.668;37.508;2023-05-19T05:30:44;100035.94;;;12.24;100.00